sensor_id;sensor_type;location;lat;lon;timestamp;P1;durP1;ratioP1;P2;durP2;ratioP2
76752;SDS011;65687;51.308;16.916;2023-04-15T00:04:20;14.80;;;9.50;;
76752;SDS011;65687;51.308;16.916;2023-04-15T00:09:22;12.20;;;9.00;;
76752;SDS011;65687;51.308;16.916;2023-04-15T00:14:24;11.70;;;7.70;;
76752;SDS011;65687;51.308;16.916;2023-04-15T00:19:26;11.60;;;7.90;;
76752;SDS011;65687;51.308;16.916;2023-04-15T00:24:28;9.60;;;7.90;;
76752;SDS011;65687;51.308;16.916;2023-04-15T00:29:30;10.60;;;7.80;;
76752;SDS011;65687;51.308;16.916;2023-04-15T00:34:32;11.90;;;8.00;;
76752;SDS011;65687;51.308;16.916;2023-04-15T00:39:34;11.90;;;8.80;;
76752;SDS011;65687;51.308;16.916;2023-04-15T00:44:35;10.80;;;7.50;;
76752;SDS011;65687;51.308;16.916;2023-04-15T00:49:37;13.00;;;8.40;;
76752;SDS011;65687;51.308;16.916;2023-04-15T00:54:38;13.60;;;9.20;;
76752;SDS011;65687;51.308;16.916;2023-04-15T00:59:40;14.30;;;9.10;;
76752;SDS011;65687;51.308;16.916;2023-04-15T01:04:42;10.00;;;7.80;;
76752;SDS011;65687;51.308;16.916;2023-04-15T01:09:43;11.90;;;8.50;;
76752;SDS011;65687;51.308;16.916;2023-04-15T01:14:45;12.40;;;8.50;;
76752;SDS011;65687;51.308;16.916;2023-04-15T01:19:47;11.90;;;8.10;;
76752;SDS011;65687;51.308;16.916;2023-04-15T01:25:10;10.90;;;8.00;;
76752;SDS011;65687;51.308;16.916;2023-04-15T01:30:12;12.70;;;9.00;;
76752;SDS011;65687;51.308;16.916;2023-04-15T01:35:14;10.60;;;8.10;;
76752;SDS011;65687;51.308;16.916;2023-04-15T01:40:15;14.60;;;9.30;;
76752;SDS011;65687;51.308;16.916;2023-04-15T01:45:17;11.60;;;7.80;;
76752;SDS011;65687;51.308;16.916;2023-04-15T01:50:18;13.80;;;7.70;;
76752;SDS011;65687;51.308;16.916;2023-04-15T01:55:20;11.50;;;8.10;;
76752;SDS011;65687;51.308;16.916;2023-04-15T02:00:22;10.60;;;8.10;;
76752;SDS011;65687;51.308;16.916;2023-04-15T02:05:24;10.30;;;7.70;;
76752;SDS011;65687;51.308;16.916;2023-04-15T02:10:26;11.20;;;9.00;;
76752;SDS011;65687;51.308;16.916;2023-04-15T02:15:27;13.20;;;8.60;;
76752;SDS011;65687;51.308;16.916;2023-04-15T02:20:29;11.80;;;9.80;;
76752;SDS011;65687;51.308;16.916;2023-04-15T02:25:31;10.00;;;8.60;;
76752;SDS011;65687;51.308;16.916;2023-04-15T02:30:32;13.20;;;8.70;;
76752;SDS011;65687;51.308;16.916;2023-04-15T02:35:34;11.10;;;8.10;;
76752;SDS011;65687;51.308;16.916;2023-04-15T02:40:38;12.80;;;8.90;;
76752;SDS011;65687;51.308;16.916;2023-04-15T02:45:39;11.40;;;8.20;;
76752;SDS011;65687;51.308;16.916;2023-04-15T02:50:44;13.10;;;8.60;;
76752;SDS011;65687;51.308;16.916;2023-04-15T02:55:46;12.00;;;8.70;;
76752;SDS011;65687;51.308;16.916;2023-04-15T03:00:48;16.20;;;9.60;;
76752;SDS011;65687;51.308;16.916;2023-04-15T03:05:51;12.70;;;8.00;;
76752;SDS011;65687;51.308;16.916;2023-04-15T03:10:52;13.00;;;9.60;;
76752;SDS011;65687;51.308;16.916;2023-04-15T03:15:54;12.00;;;8.50;;
76752;SDS011;65687;51.308;16.916;2023-04-15T03:20:55;11.10;;;8.20;;
76752;SDS011;65687;51.308;16.916;2023-04-15T03:26:00;12.60;;;8.50;;
76752;SDS011;65687;51.308;16.916;2023-04-15T03:31:02;12.20;;;9.00;;
76752;SDS011;65687;51.308;16.916;2023-04-15T03:36:03;12.80;;;9.40;;
76752;SDS011;65687;51.308;16.916;2023-04-15T03:41:05;12.30;;;8.20;;
76752;SDS011;65687;51.308;16.916;2023-04-15T03:46:07;11.10;;;7.70;;
76752;SDS011;65687;51.308;16.916;2023-04-15T03:51:09;12.20;;;8.70;;
76752;SDS011;65687;51.308;16.916;2023-04-15T03:56:10;13.10;;;9.10;;
76752;SDS011;65687;51.308;16.916;2023-04-15T04:01:11;9.40;;;7.40;;
76752;SDS011;65687;51.308;16.916;2023-04-15T04:06:13;10.50;;;8.00;;
76752;SDS011;65687;51.308;16.916;2023-04-15T04:11:15;13.20;;;8.70;;
76752;SDS011;65687;51.308;16.916;2023-04-15T04:16:17;13.30;;;8.40;;
76752;SDS011;65687;51.308;16.916;2023-04-15T04:21:18;17.30;;;11.00;;
76752;SDS011;65687;51.308;16.916;2023-04-15T04:26:21;14.60;;;9.20;;
76752;SDS011;65687;51.308;16.916;2023-04-15T04:31:23;14.10;;;9.90;;
76752;SDS011;65687;51.308;16.916;2023-04-15T04:36:24;10.70;;;7.30;;
76752;SDS011;65687;51.308;16.916;2023-04-15T04:41:26;13.90;;;9.50;;
76752;SDS011;65687;51.308;16.916;2023-04-15T04:46:28;11.40;;;7.40;;
76752;SDS011;65687;51.308;16.916;2023-04-15T04:51:30;13.80;;;8.80;;
76752;SDS011;65687;51.308;16.916;2023-04-15T04:56:32;12.20;;;7.10;;
76752;SDS011;65687;51.308;16.916;2023-04-15T05:01:34;11.10;;;7.00;;
76752;SDS011;65687;51.308;16.916;2023-04-15T05:06:36;15.80;;;9.00;;
76752;SDS011;65687;51.308;16.916;2023-04-15T05:11:38;9.90;;;7.30;;
76752;SDS011;65687;51.308;16.916;2023-04-15T05:16:39;9.40;;;6.50;;
76752;SDS011;65687;51.308;16.916;2023-04-15T05:21:41;7.50;;;5.20;;
76752;SDS011;65687;51.308;16.916;2023-04-15T05:26:43;6.00;;;3.70;;
76752;SDS011;65687;51.308;16.916;2023-04-15T05:31:44;2.80;;;1.80;;
76752;SDS011;65687;51.308;16.916;2023-04-15T05:36:46;3.80;;;2.90;;
76752;SDS011;65687;51.308;16.916;2023-04-15T05:41:47;7.00;;;3.70;;
76752;SDS011;65687;51.308;16.916;2023-04-15T05:46:49;4.70;;;3.70;;
76752;SDS011;65687;51.308;16.916;2023-04-15T05:51:50;3.10;;;2.20;;
76752;SDS011;65687;51.308;16.916;2023-04-15T05:56:52;2.20;;;1.20;;
76752;SDS011;65687;51.308;16.916;2023-04-15T06:01:54;3.00;;;2.00;;
76752;SDS011;65687;51.308;16.916;2023-04-15T06:06:56;2.60;;;1.90;;
76752;SDS011;65687;51.308;16.916;2023-04-15T06:11:58;2.00;;;1.50;;
76752;SDS011;65687;51.308;16.916;2023-04-15T06:16:59;2.60;;;2.10;;
76752;SDS011;65687;51.308;16.916;2023-04-15T06:22:01;2.80;;;2.10;;
76752;SDS011;65687;51.308;16.916;2023-04-15T06:27:03;2.90;;;1.70;;
76752;SDS011;65687;51.308;16.916;2023-04-15T06:32:05;2.10;;;1.80;;
76752;SDS011;65687;51.308;16.916;2023-04-15T06:37:07;3.80;;;1.70;;
76752;SDS011;65687;51.308;16.916;2023-04-15T06:42:11;2.40;;;1.90;;
76752;SDS011;65687;51.308;16.916;2023-04-15T06:47:12;2.80;;;2.30;;
76752;SDS011;65687;51.308;16.916;2023-04-15T06:52:15;2.40;;;1.80;;
76752;SDS011;65687;51.308;16.916;2023-04-15T06:57:16;2.90;;;1.80;;
76752;SDS011;65687;51.308;16.916;2023-04-15T07:02:18;2.70;;;1.70;;
76752;SDS011;65687;51.308;16.916;2023-04-15T07:07:19;2.30;;;1.20;;
76752;SDS011;65687;51.308;16.916;2023-04-15T07:12:21;1.80;;;1.30;;
76752;SDS011;65687;51.308;16.916;2023-04-15T07:17:22;2.10;;;1.30;;
76752;SDS011;65687;51.308;16.916;2023-04-15T07:22:24;2.00;;;1.30;;
76752;SDS011;65687;51.308;16.916;2023-04-15T07:27:26;3.70;;;1.20;;
76752;SDS011;65687;51.308;16.916;2023-04-15T07:32:28;1.10;;;1.00;;
76752;SDS011;65687;51.308;16.916;2023-04-15T07:37:29;1.30;;;1.00;;
76752;SDS011;65687;51.308;16.916;2023-04-15T07:42:33;0.70;;;0.70;;
76752;SDS011;65687;51.308;16.916;2023-04-15T07:47:34;1.30;;;1.00;;
76752;SDS011;65687;51.308;16.916;2023-04-15T07:52:36;1.30;;;1.20;;
76752;SDS011;65687;51.308;16.916;2023-04-15T07:57:40;1.50;;;1.00;;
76752;SDS011;65687;51.308;16.916;2023-04-15T08:02:42;3.40;;;1.30;;
76752;SDS011;65687;51.308;16.916;2023-04-15T08:07:44;2.90;;;1.40;;
76752;SDS011;65687;51.308;16.916;2023-04-15T08:12:46;2.40;;;1.20;;
76752;SDS011;65687;51.308;16.916;2023-04-15T08:17:49;1.20;;;1.10;;
76752;SDS011;65687;51.308;16.916;2023-04-15T08:22:51;3.80;;;1.20;;
76752;SDS011;65687;51.308;16.916;2023-04-15T08:27:56;1.50;;;1.10;;
76752;SDS011;65687;51.308;16.916;2023-04-15T08:32:58;1.80;;;1.10;;
76752;SDS011;65687;51.308;16.916;2023-04-15T08:38:00;1.60;;;1.20;;
76752;SDS011;65687;51.308;16.916;2023-04-15T08:43:02;1.40;;;1.10;;
76752;SDS011;65687;51.308;16.916;2023-04-15T08:48:05;2.20;;;1.60;;
76752;SDS011;65687;51.308;16.916;2023-04-15T08:53:10;2.20;;;1.50;;
76752;SDS011;65687;51.308;16.916;2023-04-15T08:58:12;1.90;;;1.40;;
76752;SDS011;65687;51.308;16.916;2023-04-15T09:08:16;1.90;;;1.10;;
76752;SDS011;65687;51.308;16.916;2023-04-15T09:13:18;1.50;;;1.20;;
76752;SDS011;65687;51.308;16.916;2023-04-15T09:18:26;1.40;;;1.20;;
76752;SDS011;65687;51.308;16.916;2023-04-15T09:23:29;2.20;;;1.60;;
76752;SDS011;65687;51.308;16.916;2023-04-15T09:28:33;18.90;;;16.90;;
76752;SDS011;65687;51.308;16.916;2023-04-15T09:33:52;5.30;;;3.80;;
76752;SDS011;65687;51.308;16.916;2023-04-15T09:38:58;10.10;;;6.60;;
76752;SDS011;65687;51.308;16.916;2023-04-15T09:44:00;7.90;;;3.50;;
76752;SDS011;65687;51.308;16.916;2023-04-15T09:49:08;4.30;;;2.50;;
76752;SDS011;65687;51.308;16.916;2023-04-15T09:54:10;4.10;;;2.30;;
76752;SDS011;65687;51.308;16.916;2023-04-15T09:59:12;2.50;;;1.80;;
76752;SDS011;65687;51.308;16.916;2023-04-15T10:04:14;1.90;;;1.30;;
76752;SDS011;65687;51.308;16.916;2023-04-15T10:09:15;2.20;;;1.20;;
76752;SDS011;65687;51.308;16.916;2023-04-15T10:14:17;1.80;;;1.10;;
76752;SDS011;65687;51.308;16.916;2023-04-15T10:19:20;3.20;;;2.30;;
76752;SDS011;65687;51.308;16.916;2023-04-15T10:24:27;1.90;;;1.20;;
76752;SDS011;65687;51.308;16.916;2023-04-15T10:29:32;2.40;;;2.00;;
76752;SDS011;65687;51.308;16.916;2023-04-15T10:34:34;1.30;;;1.00;;
76752;SDS011;65687;51.308;16.916;2023-04-15T10:44:49;14.90;;;8.90;;
76752;SDS011;65687;51.308;16.916;2023-04-15T10:49:58;7.40;;;6.70;;
76752;SDS011;65687;51.308;16.916;2023-04-15T11:00:13;2.10;;;1.30;;
76752;SDS011;65687;51.308;16.916;2023-04-15T11:05:16;1.80;;;1.60;;
76752;SDS011;65687;51.308;16.916;2023-04-15T11:20:55;1.40;;;1.30;;
76752;SDS011;65687;51.308;16.916;2023-04-15T11:26:01;1.80;;;1.30;;
76752;SDS011;65687;51.308;16.916;2023-04-15T11:36:12;2.70;;;2.10;;
76752;SDS011;65687;51.308;16.916;2023-04-15T11:41:14;4.30;;;3.70;;
76752;SDS011;65687;51.308;16.916;2023-04-15T11:46:27;4.90;;;4.50;;
76752;SDS011;65687;51.308;16.916;2023-04-15T11:51:33;3.20;;;2.40;;
76752;SDS011;65687;51.308;16.916;2023-04-15T11:56:34;1.70;;;1.40;;
76752;SDS011;65687;51.308;16.916;2023-04-15T12:01:37;3.70;;;2.50;;
76752;SDS011;65687;51.308;16.916;2023-04-15T12:06:47;1.90;;;1.30;;
76752;SDS011;65687;51.308;16.916;2023-04-15T12:11:55;2.10;;;1.50;;
76752;SDS011;65687;51.308;16.916;2023-04-15T12:22:05;5.50;;;3.80;;
76752;SDS011;65687;51.308;16.916;2023-04-15T12:27:15;5.30;;;3.90;;
76752;SDS011;65687;51.308;16.916;2023-04-15T12:32:17;3.10;;;2.00;;
76752;SDS011;65687;51.308;16.916;2023-04-15T12:37:22;4.00;;;1.70;;
76752;SDS011;65687;51.308;16.916;2023-04-15T12:42:24;3.20;;;1.90;;
76752;SDS011;65687;51.308;16.916;2023-04-15T12:47:25;1.60;;;1.20;;
76752;SDS011;65687;51.308;16.916;2023-04-15T12:52:27;5.80;;;3.90;;
76752;SDS011;65687;51.308;16.916;2023-04-15T12:57:28;4.40;;;3.50;;
76752;SDS011;65687;51.308;16.916;2023-04-15T13:02:30;2.40;;;1.80;;
76752;SDS011;65687;51.308;16.916;2023-04-15T13:12:33;2.90;;;2.20;;
76752;SDS011;65687;51.308;16.916;2023-04-15T13:17:37;1.60;;;1.30;;
76752;SDS011;65687;51.308;16.916;2023-04-15T13:22:38;2.70;;;1.80;;
76752;SDS011;65687;51.308;16.916;2023-04-15T13:27:40;1.60;;;1.10;;
76752;SDS011;65687;51.308;16.916;2023-04-15T13:32:42;6.90;;;3.50;;
76752;SDS011;65687;51.308;16.916;2023-04-15T13:37:44;12.10;;;7.30;;
76752;SDS011;65687;51.308;16.916;2023-04-15T13:42:46;2.30;;;1.60;;
76752;SDS011;65687;51.308;16.916;2023-04-15T13:47:47;1.50;;;1.20;;
76752;SDS011;65687;51.308;16.916;2023-04-15T13:52:49;4.30;;;3.00;;
76752;SDS011;65687;51.308;16.916;2023-04-15T13:57:51;2.50;;;1.60;;
76752;SDS011;65687;51.308;16.916;2023-04-15T14:02:52;1.70;;;1.30;;
76752;SDS011;65687;51.308;16.916;2023-04-15T14:07:54;1.90;;;1.50;;
76752;SDS011;65687;51.308;16.916;2023-04-15T14:12:55;1.50;;;1.10;;
76752;SDS011;65687;51.308;16.916;2023-04-15T14:17:57;2.70;;;1.90;;
76752;SDS011;65687;51.308;16.916;2023-04-15T14:22:58;2.60;;;1.80;;
76752;SDS011;65687;51.308;16.916;2023-04-15T14:28:00;2.10;;;1.20;;
76752;SDS011;65687;51.308;16.916;2023-04-15T14:33:03;2.40;;;1.40;;
76752;SDS011;65687;51.308;16.916;2023-04-15T14:38:04;2.40;;;1.90;;
76752;SDS011;65687;51.308;16.916;2023-04-15T14:43:10;2.00;;;1.50;;
76752;SDS011;65687;51.308;16.916;2023-04-15T14:48:12;2.30;;;1.50;;
76752;SDS011;65687;51.308;16.916;2023-04-15T14:53:13;1.90;;;1.50;;
76752;SDS011;65687;51.308;16.916;2023-04-15T14:58:15;1.90;;;1.20;;
76752;SDS011;65687;51.308;16.916;2023-04-15T15:03:17;1.80;;;1.30;;
76752;SDS011;65687;51.308;16.916;2023-04-15T15:08:19;1.10;;;1.00;;
76752;SDS011;65687;51.308;16.916;2023-04-15T15:13:21;1.70;;;1.30;;
76752;SDS011;65687;51.308;16.916;2023-04-15T15:18:22;2.30;;;1.50;;
76752;SDS011;65687;51.308;16.916;2023-04-15T15:23:25;2.00;;;1.40;;
76752;SDS011;65687;51.308;16.916;2023-04-15T15:28:27;2.50;;;1.30;;
76752;SDS011;65687;51.308;16.916;2023-04-15T15:33:28;1.60;;;1.40;;
76752;SDS011;65687;51.308;16.916;2023-04-15T15:38:30;1.90;;;1.30;;
76752;SDS011;65687;51.308;16.916;2023-04-15T15:43:31;2.00;;;1.50;;
76752;SDS011;65687;51.308;16.916;2023-04-15T15:48:33;1.60;;;1.30;;
76752;SDS011;65687;51.308;16.916;2023-04-15T15:53:34;2.20;;;1.50;;
76752;SDS011;65687;51.308;16.916;2023-04-15T15:58:36;2.20;;;1.60;;
76752;SDS011;65687;51.308;16.916;2023-04-15T16:03:38;3.10;;;1.50;;
76752;SDS011;65687;51.308;16.916;2023-04-15T16:08:40;1.60;;;1.30;;
76752;SDS011;65687;51.308;16.916;2023-04-15T16:13:41;1.60;;;1.30;;
76752;SDS011;65687;51.308;16.916;2023-04-15T16:18:43;2.10;;;1.70;;
76752;SDS011;65687;51.308;16.916;2023-04-15T16:23:45;2.90;;;1.80;;
76752;SDS011;65687;51.308;16.916;2023-04-15T16:28:46;3.30;;;1.90;;
76752;SDS011;65687;51.308;16.916;2023-04-15T16:33:48;3.40;;;1.70;;
76752;SDS011;65687;51.308;16.916;2023-04-15T16:38:49;2.30;;;1.60;;
76752;SDS011;65687;51.308;16.916;2023-04-15T16:43:51;2.10;;;1.30;;
76752;SDS011;65687;51.308;16.916;2023-04-15T16:48:53;2.50;;;1.60;;
76752;SDS011;65687;51.308;16.916;2023-04-15T16:53:54;2.10;;;1.40;;
76752;SDS011;65687;51.308;16.916;2023-04-15T16:58:56;1.80;;;1.20;;
76752;SDS011;65687;51.308;16.916;2023-04-15T17:03:57;1.80;;;1.30;;
76752;SDS011;65687;51.308;16.916;2023-04-15T17:08:59;2.20;;;1.20;;
76752;SDS011;65687;51.308;16.916;2023-04-15T17:14:01;2.10;;;1.40;;
76752;SDS011;65687;51.308;16.916;2023-04-15T17:19:03;1.70;;;1.20;;
76752;SDS011;65687;51.308;16.916;2023-04-15T17:24:04;2.60;;;1.60;;
76752;SDS011;65687;51.308;16.916;2023-04-15T17:29:06;4.70;;;2.70;;
76752;SDS011;65687;51.308;16.916;2023-04-15T17:34:08;4.60;;;3.00;;
76752;SDS011;65687;51.308;16.916;2023-04-15T17:39:10;6.50;;;3.80;;
76752;SDS011;65687;51.308;16.916;2023-04-15T17:44:12;3.90;;;2.30;;
76752;SDS011;65687;51.308;16.916;2023-04-15T17:49:13;4.10;;;2.90;;
76752;SDS011;65687;51.308;16.916;2023-04-15T17:54:15;8.50;;;6.00;;
76752;SDS011;65687;51.308;16.916;2023-04-15T17:59:16;9.80;;;7.00;;
76752;SDS011;65687;51.308;16.916;2023-04-15T18:04:18;7.20;;;3.70;;
76752;SDS011;65687;51.308;16.916;2023-04-15T18:09:20;9.30;;;5.30;;
76752;SDS011;65687;51.308;16.916;2023-04-15T18:14:22;10.50;;;6.70;;
76752;SDS011;65687;51.308;16.916;2023-04-15T18:19:24;10.00;;;6.80;;
76752;SDS011;65687;51.308;16.916;2023-04-15T18:24:25;8.90;;;6.20;;
76752;SDS011;65687;51.308;16.916;2023-04-15T18:29:27;9.40;;;5.90;;
76752;SDS011;65687;51.308;16.916;2023-04-15T18:34:31;10.00;;;5.90;;
76752;SDS011;65687;51.308;16.916;2023-04-15T18:39:35;10.00;;;6.60;;
76752;SDS011;65687;51.308;16.916;2023-04-15T18:44:37;12.10;;;7.20;;
76752;SDS011;65687;51.308;16.916;2023-04-15T18:49:39;11.50;;;8.40;;
76752;SDS011;65687;51.308;16.916;2023-04-15T18:54:41;10.90;;;7.70;;
76752;SDS011;65687;51.308;16.916;2023-04-15T18:59:43;10.00;;;6.20;;
76752;SDS011;65687;51.308;16.916;2023-04-15T19:04:44;11.20;;;7.40;;
76752;SDS011;65687;51.308;16.916;2023-04-15T19:09:46;15.30;;;9.20;;
76752;SDS011;65687;51.308;16.916;2023-04-15T19:14:48;18.20;;;10.70;;
76752;SDS011;65687;51.308;16.916;2023-04-15T19:19:50;12.30;;;7.30;;
76752;SDS011;65687;51.308;16.916;2023-04-15T19:24:52;13.30;;;7.70;;
76752;SDS011;65687;51.308;16.916;2023-04-15T19:29:54;12.10;;;7.30;;
76752;SDS011;65687;51.308;16.916;2023-04-15T19:34:56;11.80;;;7.80;;
76752;SDS011;65687;51.308;16.916;2023-04-15T19:39:57;14.10;;;8.00;;
76752;SDS011;65687;51.308;16.916;2023-04-15T19:44:59;12.40;;;7.90;;
76752;SDS011;65687;51.308;16.916;2023-04-15T19:50:01;13.30;;;8.50;;
76752;SDS011;65687;51.308;16.916;2023-04-15T19:55:03;12.00;;;8.20;;
76752;SDS011;65687;51.308;16.916;2023-04-15T20:00:05;22.60;;;11.10;;
76752;SDS011;65687;51.308;16.916;2023-04-15T20:05:07;15.10;;;9.20;;
76752;SDS011;65687;51.308;16.916;2023-04-15T20:10:10;12.60;;;8.40;;
76752;SDS011;65687;51.308;16.916;2023-04-15T20:15:12;15.90;;;9.00;;
76752;SDS011;65687;51.308;16.916;2023-04-15T20:20:14;12.10;;;9.30;;
76752;SDS011;65687;51.308;16.916;2023-04-15T20:25:16;13.50;;;8.40;;
76752;SDS011;65687;51.308;16.916;2023-04-15T20:30:18;16.30;;;10.20;;
76752;SDS011;65687;51.308;16.916;2023-04-15T20:35:19;16.90;;;11.00;;
76752;SDS011;65687;51.308;16.916;2023-04-15T20:40:21;17.90;;;11.30;;
76752;SDS011;65687;51.308;16.916;2023-04-15T20:45:23;18.40;;;11.20;;
76752;SDS011;65687;51.308;16.916;2023-04-15T20:50:24;20.40;;;11.00;;
76752;SDS011;65687;51.308;16.916;2023-04-15T20:55:26;17.30;;;11.60;;
76752;SDS011;65687;51.308;16.916;2023-04-15T21:00:27;23.90;;;13.30;;
76752;SDS011;65687;51.308;16.916;2023-04-15T21:05:29;20.70;;;14.50;;
76752;SDS011;65687;51.308;16.916;2023-04-15T21:10:31;20.80;;;13.60;;
76752;SDS011;65687;51.308;16.916;2023-04-15T21:15:35;20.20;;;12.60;;
76752;SDS011;65687;51.308;16.916;2023-04-15T21:20:36;18.10;;;11.90;;
76752;SDS011;65687;51.308;16.916;2023-04-15T21:25:38;19.80;;;12.40;;
76752;SDS011;65687;51.308;16.916;2023-04-15T21:30:39;17.70;;;12.10;;
76752;SDS011;65687;51.308;16.916;2023-04-15T21:35:41;21.80;;;13.70;;
76752;SDS011;65687;51.308;16.916;2023-04-15T21:40:42;19.70;;;14.10;;
76752;SDS011;65687;51.308;16.916;2023-04-15T21:45:44;18.80;;;12.90;;
76752;SDS011;65687;51.308;16.916;2023-04-15T21:50:45;17.90;;;12.60;;
76752;SDS011;65687;51.308;16.916;2023-04-15T21:55:47;19.30;;;13.90;;
76752;SDS011;65687;51.308;16.916;2023-04-15T22:00:48;20.30;;;13.40;;
76752;SDS011;65687;51.308;16.916;2023-04-15T22:05:50;19.80;;;13.00;;
76752;SDS011;65687;51.308;16.916;2023-04-15T22:10:51;22.50;;;14.40;;
76752;SDS011;65687;51.308;16.916;2023-04-15T22:15:53;25.20;;;14.70;;
76752;SDS011;65687;51.308;16.916;2023-04-15T22:20:55;20.70;;;13.30;;
76752;SDS011;65687;51.308;16.916;2023-04-15T22:25:57;20.70;;;13.30;;
76752;SDS011;65687;51.308;16.916;2023-04-15T22:30:59;21.70;;;13.70;;
76752;SDS011;65687;51.308;16.916;2023-04-15T22:41:03;24.10;;;15.20;;
76752;SDS011;65687;51.308;16.916;2023-04-15T22:46:05;23.50;;;17.50;;
76752;SDS011;65687;51.308;16.916;2023-04-15T22:51:06;25.80;;;18.00;;
76752;SDS011;65687;51.308;16.916;2023-04-15T22:56:08;30.00;;;18.50;;
76752;SDS011;65687;51.308;16.916;2023-04-15T23:01:10;24.00;;;16.30;;
76752;SDS011;65687;51.308;16.916;2023-04-15T23:06:11;22.90;;;15.70;;
76752;SDS011;65687;51.308;16.916;2023-04-15T23:11:13;23.00;;;13.90;;
76752;SDS011;65687;51.308;16.916;2023-04-15T23:16:15;24.80;;;15.60;;
76752;SDS011;65687;51.308;16.916;2023-04-15T23:21:16;26.00;;;15.70;;
76752;SDS011;65687;51.308;16.916;2023-04-15T23:26:18;23.10;;;14.40;;
76752;SDS011;65687;51.308;16.916;2023-04-15T23:31:19;26.90;;;15.60;;
76752;SDS011;65687;51.308;16.916;2023-04-15T23:36:21;21.30;;;14.50;;
76752;SDS011;65687;51.308;16.916;2023-04-15T23:41:22;21.10;;;13.10;;
76752;SDS011;65687;51.308;16.916;2023-04-15T23:46:24;20.20;;;13.70;;
76752;SDS011;65687;51.308;16.916;2023-04-15T23:51:25;21.40;;;14.40;;
76752;SDS011;65687;51.308;16.916;2023-04-15T23:56:27;23.40;;;15.10;;
